Time;durP1;ratioP1;P1;durP2;ratioP2;P2;SDS_P1;SDS_P2;PMS_P1;PMS_P2;Temp;Humidity;BMP_temperature;BMP_pressure;BME280_temperature;BME280_humidity;BME280_pressure;Samples;Min_cycle;Max_cycle;Signal;HPM_P1;HPM_P2
2023/06/11 00:01:08;;;;;;;10.43;8.03;;;17.40;76.90;;;;;;5025544;28;20184;-56
2023/06/11 00:03:36;;;;;;;7.93;7.13;;;17.30;78.40;;;;;;5021667;28;20365;-56
2023/06/11 00:06:02;;;;;;;9.13;6.77;;;17.30;79.10;;;;;;5025972;28;20465;-55
2023/06/11 00:08:27;;;;;;;8.70;6.73;;;17.30;80.20;;;;;;5022421;28;20422;-56
2023/06/11 00:10:53;;;;;;;8.70;7.23;;;17.30;81.60;;;;;;5022549;28;20176;-56
2023/06/11 00:13:18;;;;;;;9.93;8.10;;;17.30;82.50;;;;;;5020583;28;20203;-56
2023/06/11 00:15:44;;;;;;;7.90;6.97;;;17.30;83.40;;;;;;5025152;28;20191;-57
2023/06/11 00:18:10;;;;;;;8.23;7.30;;;17.30;83.70;;;;;;5023348;28;20188;-56
2023/06/11 00:20:40;;;;;;;10.57;8.83;;;17.30;84.00;;;;;;5025500;28;20274;-57
2023/06/11 00:23:06;;;;;;;9.37;7.53;;;17.30;84.00;;;;;;5026321;28;20207;-56
2023/06/11 00:25:32;;;;;;;8.87;7.60;;;17.20;84.50;;;;;;5023105;28;20469;-54
2023/06/11 00:27:58;;;;;;;11.00;8.33;;;17.20;85.60;;;;;;5019205;28;20256;-57
2023/06/11 00:30:23;;;;;;;10.27;8.20;;;17.10;86.30;;;;;;5024829;28;20447;-57
2023/06/11 00:32:49;;;;;;;10.63;7.97;;;17.10;87.70;;;;;;5027011;28;20688;-56
2023/06/11 00:35:15;;;;;;;8.90;7.53;;;17.10;89.00;;;;;;5023897;28;20694;-56
2023/06/11 00:37:42;;;;;;;8.33;7.23;;;17.00;89.50;;;;;;5019943;28;20205;-57
2023/06/11 00:40:08;;;;;;;8.50;7.10;;;17.00;90.30;;;;;;5022521;28;20259;-56
2023/06/11 00:42:34;;;;;;;8.50;7.40;;;17.00;91.10;;;;;;5024335;28;20613;-56
2023/06/11 00:45:08;;;;;;;9.77;7.23;;;17.00;91.70;;;;;;5026815;28;20521;-56
2023/06/11 00:47:36;;;;;;;8.70;7.27;;;17.00;91.80;;;;;;5014745;28;20572;-55
2023/06/11 00:50:04;;;;;;;8.30;7.40;;;17.00;92.30;;;;;;5023718;28;20434;-56
2023/06/11 00:52:30;;;;;;;8.80;7.43;;;17.00;92.60;;;;;;5018692;28;20477;-56
2023/06/11 00:54:56;;;;;;;8.87;7.43;;;17.00;92.90;;;;;;5026816;28;20421;-54
2023/06/11 00:57:25;;;;;;;9.60;8.27;;;17.00;93.20;;;;;;5026269;28;20414;-56
2023/06/11 00:59:55;;;;;;;10.83;8.03;;;17.00;93.30;;;;;;5020378;28;20518;-55
2023/06/11 01:02:24;;;;;;;8.37;7.20;;;17.00;93.80;;;;;;5024332;28;20415;-56
2023/06/11 01:04:57;;;;;;;8.00;6.80;;;17.00;94.20;;;;;;5015922;28;20423;-56
2023/06/11 01:07:25;;;;;;;9.90;7.53;;;16.90;93.90;;;;;;5023863;28;20462;-57
2023/06/11 01:09:51;;;;;;;9.10;7.30;;;16.90;93.70;;;;;;5021638;28;20778;-56
2023/06/11 01:12:17;;;;;;;9.83;7.83;;;16.90;93.80;;;;;;5023634;28;20422;-55
2023/06/11 01:14:42;;;;;;;9.23;8.20;;;16.90;93.70;;;;;;5018655;28;20504;-56
2023/06/11 01:17:40;;;;;;;11.17;7.53;;;16.80;94.20;;;;;;5026430;28;20279;-57
2023/06/11 01:20:25;;;;;;;11.10;7.67;;;16.80;94.70;;;;;;5023262;28;20181;-56
2023/06/11 01:23:13;;;;;;;8.23;7.43;;;16.80;95.10;;;;;;5026455;28;20450;-56
2023/06/11 01:25:57;;;;;;;15.20;8.80;;;16.70;95.20;;;;;;5023559;28;20423;-57
2023/06/11 01:28:28;;;;;;;10.80;8.40;;;16.70;95.20;;;;;;5018401;28;20430;-58
2023/06/11 01:30:58;;;;;;;11.17;8.00;;;16.70;95.70;;;;;;5023039;28;20999;-57
2023/06/11 01:33:27;;;;;;;12.10;8.43;;;16.70;96.20;;;;;;5023335;28;20816;-56
2023/06/11 01:35:58;;;;;;;9.40;7.53;;;16.70;96.40;;;;;;5024559;28;20431;-57
2023/06/11 01:38:25;;;;;;;10.40;7.67;;;16.60;96.50;;;;;;5023429;28;20533;-57
2023/06/11 01:40:52;;;;;;;10.00;8.07;;;16.60;97.20;;;;;;5025011;28;20430;-56
2023/06/11 01:43:17;;;;;;;9.63;7.80;;;16.60;96.70;;;;;;5029287;28;21151;-55
2023/06/11 01:45:43;;;;;;;12.67;8.30;;;16.60;97.10;;;;;;5021670;28;20431;-56
2023/06/11 01:48:09;;;;;;;11.50;9.10;;;16.50;97.20;;;;;;5027032;28;20184;-57
2023/06/11 01:50:35;;;;;;;15.90;8.40;;;16.50;97.30;;;;;;5028928;28;20184;-56
2023/06/11 01:53:00;;;;;;;11.17;8.73;;;16.40;97.80;;;;;;5023520;28;20674;-56
2023/06/11 01:55:26;;;;;;;10.53;8.70;;;16.40;98.30;;;;;;5025886;28;20234;-56
2023/06/11 01:57:52;;;;;;;12.70;8.57;;;16.40;98.10;;;;;;5025691;28;20183;-56
2023/06/11 02:00:18;;;;;;;11.10;8.07;;;16.40;98.00;;;;;;5027547;28;20535;-56
2023/06/11 02:02:46;;;;;;;12.37;9.00;;;16.30;97.90;;;;;;5023058;28;20204;-56
2023/06/11 02:05:12;;;;;;;11.13;8.50;;;16.30;98.70;;;;;;5026684;28;20438;-57
2023/06/11 02:07:37;;;;;;;9.80;7.87;;;16.30;99.00;;;;;;5027343;28;20534;-57
2023/06/11 02:10:03;;;;;;;9.90;7.87;;;16.20;99.70;;;;;;5024228;28;20230;-55
2023/06/11 02:12:29;;;;;;;10.90;8.40;;;16.20;99.80;;;;;;5026632;28;20267;-56
2023/06/11 02:14:54;;;;;;;13.53;8.70;;;16.20;99.90;;;;;;5023167;28;20665;-56
2023/06/11 02:17:20;;;;;;;12.97;8.93;;;16.20;99.80;;;;;;5024090;28;20541;-57
2023/06/11 02:19:47;;;;;;;10.10;8.23;;;16.10;99.90;;;;;;5023557;28;20183;-56
2023/06/11 02:22:15;;;;;;;10.73;8.27;;;16.10;99.90;;;;;;5026543;28;20192;-56
2023/06/11 02:24:41;;;;;;;14.93;8.93;;;16.10;99.90;;;;;;5025549;28;20793;-56
2023/06/11 02:27:06;;;;;;;9.80;8.30;;;16.10;99.90;;;;;;5019402;28;20465;-55
2023/06/11 02:29:32;;;;;;;10.40;9.20;;;16.10;99.90;;;;;;5025552;28;20190;-56
2023/06/11 02:31:58;;;;;;;10.90;8.10;;;16.10;99.90;;;;;;5025388;28;20176;-56
2023/06/11 02:34:23;;;;;;;11.23;8.60;;;16.10;99.90;;;;;;5027495;28;20606;-54
2023/06/11 02:36:49;;;;;;;12.30;9.47;;;16.10;99.90;;;;;;5021151;28;20223;-55
2023/06/11 02:39:14;;;;;;;11.20;9.03;;;16.10;99.90;;;;;;5022404;28;20199;-57
2023/06/11 02:41:40;;;;;;;10.80;8.27;;;16.10;99.90;;;;;;5027596;28;20187;-56
2023/06/11 02:44:06;;;;;;;13.07;9.60;;;16.10;99.90;;;;;;5026481;28;20199;-55
2023/06/11 02:46:31;;;;;;;11.30;9.60;;;16.10;99.90;;;;;;5025694;28;20208;-55
2023/06/11 02:48:57;;;;;;;15.43;11.20;;;16.10;99.90;;;;;;5015911;28;20180;-56
2023/06/11 02:51:22;;;;;;;15.40;10.40;;;16.00;99.90;;;;;;5021691;28;20183;-57
2023/06/11 02:53:48;;;;;;;10.30;8.90;;;16.00;99.90;;;;;;5026437;28;20868;-55
2023/06/11 02:56:14;;;;;;;11.70;9.00;;;16.00;99.90;;;;;;5025940;28;20191;-54
2023/06/11 02:58:40;;;;;;;12.80;9.50;;;16.00;99.90;;;;;;5018269;28;20204;-56
2023/06/11 03:01:05;;;;;;;14.00;9.20;;;15.90;99.90;;;;;;5019234;28;20188;-56
2023/06/11 03:03:31;;;;;;;10.53;9.00;;;15.90;99.90;;;;;;5025386;28;20289;-56
2023/06/11 03:05:56;;;;;;;12.67;9.37;;;15.90;99.90;;;;;;5028210;28;20647;-55
2023/06/11 03:08:22;;;;;;;13.70;8.80;;;15.90;99.90;;;;;;5025579;28;20172;-55
2023/06/11 03:10:47;;;;;;;11.50;9.50;;;15.80;99.90;;;;;;5020749;28;20191;-54
2023/06/11 03:13:13;;;;;;;10.87;8.97;;;15.80;99.90;;;;;;5024696;28;20191;-55
2023/06/11 03:15:39;;;;;;;10.93;9.10;;;15.80;99.90;;;;;;5025178;28;20190;-55
2023/06/11 03:18:04;;;;;;;12.10;9.17;;;15.80;99.90;;;;;;5025955;28;20164;-55
2023/06/11 03:20:30;;;;;;;15.70;10.70;;;15.70;99.90;;;;;;5015356;28;20259;-55
2023/06/11 03:22:56;;;;;;;13.20;9.60;;;15.70;99.90;;;;;;5022632;28;20699;-56
2023/06/11 03:25:21;;;;;;;10.20;8.70;;;15.70;99.90;;;;;;5023289;28;20200;-56
2023/06/11 03:27:47;;;;;;;11.70;9.67;;;15.70;99.90;;;;;;5025690;28;20200;-56
2023/06/11 03:30:12;;;;;;;10.73;9.40;;;15.70;99.90;;;;;;5025089;28;20556;-56
2023/06/11 03:32:39;;;;;;;11.80;9.23;;;15.70;99.90;;;;;;5022892;28;20200;-56
2023/06/11 03:35:05;;;;;;;10.60;8.63;;;15.70;99.90;;;;;;5021565;28;20164;-56
2023/06/11 03:37:31;;;;;;;13.57;10.57;;;15.70;99.90;;;;;;5026804;28;20473;-56
2023/06/11 03:39:56;;;;;;;12.20;9.83;;;15.70;99.90;;;;;;5027530;28;20186;-57
2023/06/11 03:42:22;;;;;;;12.60;9.97;;;15.70;99.90;;;;;;5027682;28;20184;-56
2023/06/11 03:44:49;;;;;;;13.30;10.37;;;15.70;99.90;;;;;;5017674;28;20263;-56
2023/06/11 03:47:15;;;;;;;12.40;9.37;;;15.70;99.90;;;;;;5023942;28;20290;-56
2023/06/11 03:49:41;;;;;;;13.77;9.60;;;15.70;99.90;;;;;;5026603;28;20509;-56
2023/06/11 03:52:07;;;;;;;13.20;10.67;;;15.70;99.90;;;;;;5022924;28;20177;-56
2023/06/11 03:54:32;;;;;;;14.30;9.97;;;15.70;99.90;;;;;;5021944;28;20203;-54
2023/06/11 03:56:58;;;;;;;11.87;9.70;;;15.60;99.90;;;;;;5023264;28;20419;-55
2023/06/11 03:59:24;;;;;;;16.83;10.27;;;15.60;99.90;;;;;;5025182;28;20259;-56
2023/06/11 04:01:49;;;;;;;13.53;10.40;;;15.60;99.90;;;;;;5025895;28;20183;-55
2023/06/11 04:04:15;;;;;;;11.63;9.73;;;15.60;99.90;;;;;;5022014;28;20621;-57
2023/06/11 04:06:42;;;;;;;15.43;10.10;;;15.60;99.90;;;;;;5021284;28;20261;-56
2023/06/11 04:09:08;;;;;;;13.20;9.80;;;15.60;99.90;;;;;;5024817;28;20230;-55
2023/06/11 04:11:33;;;;;;;12.07;9.93;;;15.60;99.90;;;;;;5027308;28;20414;-54
2023/06/11 04:13:59;;;;;;;13.37;10.60;;;15.60;99.90;;;;;;5024662;28;20206;-55
2023/06/11 04:16:25;;;;;;;11.90;10.23;;;15.70;99.90;;;;;;5022685;28;20187;-55
2023/06/11 04:18:51;;;;;;;13.37;10.37;;;15.70;99.90;;;;;;5020243;28;20611;-55
2023/06/11 04:21:17;;;;;;;13.27;10.43;;;15.70;99.90;;;;;;5025594;28;20635;-55
2023/06/11 04:23:43;;;;;;;12.80;10.20;;;15.70;99.90;;;;;;5021697;28;21071;-56
2023/06/11 04:26:09;;;;;;;14.40;10.57;;;15.80;99.90;;;;;;5021153;28;20699;-56
2023/06/11 04:28:36;;;;;;;14.70;10.20;;;15.80;99.90;;;;;;5018631;28;20179;-55
2023/06/11 04:31:02;;;;;;;16.13;10.67;;;15.80;99.90;;;;;;5018951;28;20172;-56
2023/06/11 04:33:36;;;;;;;17.33;10.33;;;15.90;99.90;;;;;;5024280;28;20974;-57
2023/06/11 04:36:07;;;;;;;13.53;10.37;;;15.90;99.90;;;;;;5025816;28;20418;-57
2023/06/11 04:38:34;;;;;;;14.53;10.87;;;16.00;99.90;;;;;;5027031;28;21089;-55
2023/06/11 04:41:00;;;;;;;16.93;10.40;;;16.10;99.90;;;;;;5023477;28;20497;-57
2023/06/11 04:43:25;;;;;;;17.30;10.30;;;16.10;99.90;;;;;;5025306;28;20615;-56
2023/06/11 04:45:55;;;;;;;15.03;10.07;;;16.20;99.90;;;;;;5024566;28;20513;-57
2023/06/11 04:48:21;;;;;;;14.80;11.20;;;16.20;99.90;;;;;;5022326;28;20827;-57
2023/06/11 04:50:48;;;;;;;12.63;10.20;;;16.30;99.90;;;;;;5023156;28;20424;-56
2023/06/11 04:53:21;;;;;;;13.93;10.90;;;16.40;99.90;;;;;;5024091;28;20521;-56
2023/06/11 04:55:51;;;;;;;13.90;10.73;;;16.50;99.90;;;;;;5028593;28;20488;-56
2023/06/11 04:58:20;;;;;;;13.77;10.27;;;16.50;99.90;;;;;;5024144;28;20529;-55
2023/06/11 05:00:47;;;;;;;12.40;9.57;;;16.70;99.90;;;;;;5024974;28;20431;-56
2023/06/11 05:03:13;;;;;;;14.67;11.00;;;16.70;99.90;;;;;;5018823;28;20446;-55
2023/06/11 05:05:39;;;;;;;13.20;10.10;;;16.80;99.90;;;;;;5026395;28;20498;-55
2023/06/11 05:08:04;;;;;;;14.13;10.03;;;16.90;99.90;;;;;;5030642;28;20466;-57
2023/06/11 05:10:30;;;;;;;12.60;10.67;;;17.00;99.90;;;;;;5028721;28;20185;-57
2023/06/11 05:12:56;;;;;;;14.27;10.10;;;17.10;99.90;;;;;;5027077;28;20257;-57
2023/06/11 05:15:21;;;;;;;12.20;9.93;;;17.20;99.90;;;;;;5025785;28;20171;-56
2023/06/11 05:17:47;;;;;;;11.93;10.00;;;17.20;99.90;;;;;;5027116;28;20188;-55
2023/06/11 05:20:13;;;;;;;14.23;9.53;;;17.20;99.90;;;;;;5028214;28;20172;-55
2023/06/11 05:22:39;;;;;;;12.80;9.93;;;17.30;99.90;;;;;;5029192;28;20210;-57
2023/06/11 05:25:05;;;;;;;17.70;10.90;;;17.30;99.90;;;;;;5024678;28;20985;-56
2023/06/11 05:27:31;;;;;;;13.50;9.83;;;17.40;99.90;;;;;;5023410;28;20466;-56
2023/06/11 05:29:57;;;;;;;14.17;10.33;;;17.40;99.90;;;;;;5025637;28;20218;-56
2023/06/11 05:32:23;;;;;;;15.20;10.80;;;17.40;99.90;;;;;;5028074;28;20422;-56
2023/06/11 05:34:51;;;;;;;13.83;10.03;;;17.50;99.90;;;;;;5021128;28;20180;-56
2023/06/11 05:37:17;;;;;;;12.77;9.27;;;17.50;99.90;;;;;;5026813;28;20192;-56
2023/06/11 05:39:43;;;;;;;13.23;10.27;;;17.50;99.90;;;;;;5027836;28;20870;-56
2023/06/11 05:42:08;;;;;;;14.00;9.97;;;17.50;99.90;;;;;;5029026;28;20496;-56
2023/06/11 05:44:34;;;;;;;12.57;9.60;;;17.50;99.90;;;;;;5023191;28;20204;-57
2023/06/11 05:47:00;;;;;;;14.00;9.23;;;17.60;99.90;;;;;;5019693;28;20180;-56
2023/06/11 05:49:26;;;;;;;12.13;9.20;;;17.60;99.90;;;;;;5026565;28;20323;-57
2023/06/11 05:51:52;;;;;;;11.60;9.50;;;17.80;99.90;;;;;;5024605;28;20501;-55
2023/06/11 05:54:17;;;;;;;14.00;9.30;;;17.90;99.90;;;;;;5028646;28;20295;-55
2023/06/11 05:56:44;;;;;;;10.80;8.80;;;18.00;99.90;;;;;;5025541;28;20229;-56
2023/06/11 05:59:10;;;;;;;11.50;9.17;;;18.00;99.80;;;;;;5023209;28;20168;-56
2023/06/11 06:01:36;;;;;;;10.60;9.43;;;18.10;98.40;;;;;;5026948;28;20504;-55
2023/06/11 06:04:03;;;;;;;10.33;8.60;;;18.20;97.10;;;;;;5026803;28;20692;-56
2023/06/11 06:06:30;;;;;;;15.00;9.60;;;18.30;96.60;;;;;;5029612;28;20620;-57
2023/06/11 06:08:55;;;;;;;10.23;8.93;;;18.40;95.70;;;;;;5023830;28;20454;-57
2023/06/11 06:11:21;;;;;;;12.13;8.60;;;18.40;95.00;;;;;;5026238;28;20442;-58
2023/06/11 06:13:46;;;;;;;10.87;8.47;;;18.50;94.00;;;;;;5028681;28;20195;-57
2023/06/11 06:16:12;;;;;;;11.47;9.13;;;18.60;93.20;;;;;;5029384;28;20716;-57
2023/06/11 06:18:38;;;;;;;10.43;8.50;;;18.60;92.50;;;;;;5026202;28;20188;-57
2023/06/11 06:21:04;;;;;;;10.40;8.57;;;18.70;92.10;;;;;;5025354;28;20233;-56
2023/06/11 06:23:30;;;;;;;14.83;9.27;;;18.80;91.50;;;;;;5027393;28;20531;-58
2023/06/11 06:25:55;;;;;;;11.23;8.80;;;18.80;91.10;;;;;;5029439;28;20184;-57
2023/06/11 06:28:21;;;;;;;10.00;8.40;;;18.80;90.50;;;;;;5028045;28;20668;-58
2023/06/11 06:30:47;;;;;;;13.70;8.40;;;18.90;90.20;;;;;;5018846;28;20599;-56
2023/06/11 06:33:12;;;;;;;10.60;7.70;;;18.90;90.10;;;;;;5022052;28;20623;-55
2023/06/11 06:35:39;;;;;;;11.30;7.37;;;19.00;88.10;;;;;;5023509;28;20509;-56
2023/06/11 06:38:05;;;;;;;9.30;7.10;;;19.10;83.70;;;;;;5024263;28;20214;-57
2023/06/11 06:40:30;;;;;;;8.90;8.00;;;19.20;80.20;;;;;;5020982;28;22098;-57
2023/06/11 06:42:56;;;;;;;11.23;7.80;;;19.30;80.20;;;;;;5020345;28;20208;-56
2023/06/11 06:45:22;;;;;;;9.43;7.20;;;19.40;78.70;;;;;;5027748;28;20183;-56
2023/06/11 06:47:47;;;;;;;8.53;7.13;;;19.50;77.80;;;;;;5019971;28;20208;-56
2023/06/11 06:50:13;;;;;;;9.20;7.50;;;19.60;78.60;;;;;;5022279;28;20523;-57
2023/06/11 06:52:38;;;;;;;9.77;7.80;;;19.60;76.40;;;;;;5020697;28;20267;-58
2023/06/11 06:55:05;;;;;;;8.80;6.83;;;19.70;75.40;;;;;;5024477;28;20191;-57
2023/06/11 06:57:30;;;;;;;10.63;7.87;;;19.70;75.30;;;;;;5028990;28;20175;-56
2023/06/11 06:59:56;;;;;;;10.53;8.40;;;19.80;74.40;;;;;;5027672;28;20476;-55
2023/06/11 07:02:21;;;;;;;9.23;7.00;;;19.90;73.50;;;;;;5024766;28;20263;-57
2023/06/11 07:04:48;;;;;;;11.60;7.83;;;20.00;73.00;;;;;;5020377;28;20839;-54
2023/06/11 07:07:14;;;;;;;9.00;7.30;;;20.00;72.40;;;;;;5020971;28;20967;-56
2023/06/11 07:09:40;;;;;;;7.77;6.97;;;20.10;71.40;;;;;;5024934;28;20500;-57
2023/06/11 07:12:06;;;;;;;8.33;7.17;;;20.20;70.70;;;;;;5026763;28;20426;-58
2023/06/11 07:14:32;;;;;;;7.20;6.30;;;20.30;70.30;;;;;;5025621;28;20782;-56
2023/06/11 07:16:57;;;;;;;11.17;7.23;;;20.30;69.30;;;;;;5023059;28;20427;-57
2023/06/11 07:19:23;;;;;;;7.50;6.37;;;20.40;68.80;;;;;;5025550;28;20586;-56
2023/06/11 07:21:48;;;;;;;7.67;6.17;;;20.50;68.90;;;;;;5025563;28;20176;-55
2023/06/11 07:24:14;;;;;;;7.67;6.53;;;20.60;67.90;;;;;;5025797;28;20203;-56
2023/06/11 07:26:40;;;;;;;7.07;6.37;;;20.70;67.00;;;;;;5022314;28;20294;-54
2023/06/11 07:29:06;;;;;;;5.53;5.03;;;20.70;66.00;;;;;;5022262;28;20176;-57
2023/06/11 07:31:31;;;;;;;7.97;5.90;;;20.80;65.30;;;;;;5024034;28;21260;-57
2023/06/11 07:33:57;;;;;;;8.27;5.10;;;20.90;65.00;;;;;;5026826;28;20191;-56
2023/06/11 07:36:23;;;;;;;9.10;6.13;;;21.00;64.70;;;;;;5027475;28;20357;-56
2023/06/11 07:38:48;;;;;;;6.90;5.00;;;21.00;64.20;;;;;;5017365;28;20211;-55
2023/06/11 07:41:14;;;;;;;7.10;6.00;;;21.10;63.80;;;;;;5026019;28;20187;-58
2023/06/11 07:43:39;;;;;;;10.90;5.33;;;21.10;63.00;;;;;;5019874;28;20207;-58
2023/06/11 07:46:05;;;;;;;5.83;4.77;;;21.20;62.30;;;;;;5025303;28;20233;-57
2023/06/11 07:48:31;;;;;;;8.97;5.87;;;21.20;61.40;;;;;;5021736;28;20183;-57
2023/06/11 07:50:57;;;;;;;7.77;5.47;;;21.30;61.20;;;;;;5023558;28;20176;-58
2023/06/11 07:53:23;;;;;;;8.47;6.10;;;21.30;61.50;;;;;;5023913;28;20199;-56
2023/06/11 07:55:54;;;;;;;8.33;5.00;;;21.40;61.20;;;;;;5021691;28;20811;-57
2023/06/11 07:58:20;;;;;;;5.80;5.23;;;21.50;61.30;;;;;;5027071;28;20418;-57
2023/06/11 08:00:45;;;;;;;6.80;5.80;;;21.60;61.00;;;;;;5025512;28;20430;-57
2023/06/11 08:03:11;;;;;;;6.63;5.27;;;21.60;60.90;;;;;;5026650;28;20188;-58
2023/06/11 08:05:37;;;;;;;6.30;5.70;;;21.60;60.50;;;;;;5027452;28;20203;-56
2023/06/11 08:08:02;;;;;;;6.27;5.67;;;21.70;60.10;;;;;;5024470;28;20211;-55
2023/06/11 08:10:28;;;;;;;10.13;5.53;;;21.80;60.30;;;;;;5019444;28;20286;-57
2023/06/11 08:12:54;;;;;;;5.63;5.13;;;21.90;59.70;;;;;;5021615;28;20191;-56
2023/06/11 08:15:20;;;;;;;6.30;4.60;;;21.90;58.80;;;;;;5024176;28;20250;-57
2023/06/11 08:17:46;;;;;;;6.20;5.57;;;22.00;58.80;;;;;;5020434;28;20211;-57
2023/06/11 08:20:11;;;;;;;6.90;5.67;;;22.00;59.00;;;;;;5024363;28;20664;-57
2023/06/11 08:22:37;;;;;;;8.33;5.60;;;22.10;59.00;;;;;;5027637;28;20211;-57
2023/06/11 08:25:03;;;;;;;5.30;4.80;;;22.20;58.00;;;;;;5027179;28;20245;-55
2023/06/11 08:27:28;;;;;;;7.00;5.27;;;22.20;57.60;;;;;;5024391;28;20195;-57
2023/06/11 08:29:54;;;;;;;7.47;5.60;;;22.30;57.50;;;;;;5029664;28;20172;-57
2023/06/11 08:32:20;;;;;;;6.43;5.83;;;22.30;57.00;;;;;;5030227;28;20806;-56
2023/06/11 08:34:45;;;;;;;5.13;4.67;;;22.40;57.40;;;;;;5026656;28;20176;-56
2023/06/11 08:37:11;;;;;;;6.77;6.10;;;22.40;57.40;;;;;;5024473;28;20745;-56
2023/06/11 08:39:36;;;;;;;6.27;5.67;;;22.50;58.00;;;;;;5029113;28;20207;-58
2023/06/11 08:42:02;;;;;;;6.37;5.70;;;22.50;58.00;;;;;;5027531;28;20187;-56
2023/06/11 08:44:28;;;;;;;6.30;5.70;;;22.60;57.70;;;;;;5024012;28;20196;-56
2023/06/11 08:46:57;;;;;;;6.17;5.57;;;22.60;57.80;;;;;;5023022;28;20216;-57
2023/06/11 08:49:23;;;;;;;7.77;5.93;;;22.70;57.60;;;;;;5029572;28;20180;-55
2023/06/11 08:51:49;;;;;;;8.63;5.80;;;22.80;57.60;;;;;;5025659;28;20427;-57
2023/06/11 08:54:16;;;;;;;6.60;5.90;;;22.80;57.90;;;;;;5025738;28;20203;-56
2023/06/11 08:56:43;;;;;;;7.97;6.00;;;22.90;57.00;;;;;;5031267;28;20428;-54
2023/06/11 08:59:09;;;;;;;6.07;5.50;;;22.90;56.40;;;;;;5024769;28;20782;-55
2023/06/11 09:01:34;;;;;;;5.90;5.33;;;23.00;55.70;;;;;;5026388;28;20418;-55
2023/06/11 09:04:01;;;;;;;9.60;6.40;;;23.00;55.70;;;;;;5028874;28;20199;-56
2023/06/11 09:06:28;;;;;;;7.87;5.87;;;23.20;56.50;;;;;;5030110;28;20207;-56
2023/06/11 09:09:02;;;;;;;7.67;6.87;;;23.20;56.20;;;;;;5027955;28;20454;-57
2023/06/11 09:11:35;;;;;;;7.90;6.00;;;23.40;56.30;;;;;;5025672;28;20544;-56
2023/06/11 09:14:05;;;;;;;12.33;6.07;;;23.50;56.80;;;;;;5028510;28;20438;-56
2023/06/11 09:16:43;;;;;;;7.80;7.00;;;23.60;56.20;;;;;;5023688;28;20957;-56
2023/06/11 09:19:13;;;;;;;6.70;6.10;;;23.70;55.70;;;;;;5029126;28;20444;-56
2023/06/11 09:21:51;;;;;;;6.90;5.77;;;23.70;55.40;;;;;;5025508;28;21800;-58
2023/06/11 09:24:18;;;;;;;6.40;5.50;;;23.80;54.70;;;;;;5022968;28;20442;-56
2023/06/11 09:26:53;;;;;;;7.57;5.57;;;23.90;53.50;;;;;;5027199;28;21033;-57
2023/06/11 09:29:20;;;;;;;7.57;6.40;;;23.90;53.30;;;;;;5027831;28;20491;-57
2023/06/11 09:31:45;;;;;;;6.87;6.17;;;23.90;53.20;;;;;;5028471;28;20422;-57
2023/06/11 09:34:16;;;;;;;6.73;5.40;;;24.00;53.30;;;;;;5022355;28;21138;-57
2023/06/11 09:36:46;;;;;;;7.20;5.80;;;24.00;53.30;;;;;;5025095;28;20214;-56
2023/06/11 09:39:13;;;;;;;6.90;6.17;;;24.10;52.90;;;;;;5028800;28;20425;-59
2023/06/11 09:41:47;;;;;;;7.17;6.50;;;24.20;53.50;;;;;;5030419;28;20422;-57
2023/06/11 09:44:13;;;;;;;6.50;5.90;;;24.30;54.20;;;;;;5018359;28;20437;-56
2023/06/11 09:46:39;;;;;;;10.33;6.47;;;24.40;53.10;;;;;;5024138;28;20485;-57
2023/06/11 09:49:06;;;;;;;7.13;6.43;;;24.50;53.00;;;;;;5026647;28;20418;-55
2023/06/11 09:51:34;;;;;;;7.00;5.87;;;24.60;53.60;;;;;;5026548;28;20191;-57
2023/06/11 09:54:00;;;;;;;6.10;5.60;;;24.70;53.10;;;;;;5018483;28;20531;-57
2023/06/11 09:56:27;;;;;;;8.70;6.60;;;24.80;52.10;;;;;;5029156;28;21116;-57
2023/06/11 09:58:56;;;;;;;8.20;6.80;;;24.80;51.90;;;;;;5028238;28;20479;-57
2023/06/11 10:01:24;;;;;;;6.70;6.00;;;24.90;53.00;;;;;;5028602;28;20912;-56
2023/06/11 10:03:50;;;;;;;7.00;6.30;;;25.00;52.90;;;;;;5023317;28;20447;-56
2023/06/11 10:06:21;;;;;;;6.97;6.20;;;25.10;51.80;;;;;;5029764;28;20462;-56
2023/06/11 10:08:51;;;;;;;6.57;5.90;;;25.20;51.60;;;;;;5026567;28;20192;-56
2023/06/11 10:11:21;;;;;;;8.07;5.70;;;25.30;51.80;;;;;;5025916;28;20421;-56
2023/06/11 10:13:58;;;;;;;6.17;5.57;;;25.40;51.50;;;;;;5028464;28;20434;-57
2023/06/11 10:16:25;;;;;;;7.73;6.30;;;25.50;50.50;;;;;;5024385;28;20510;-57
2023/06/11 10:18:52;;;;;;;6.30;5.57;;;25.60;50.70;;;;;;5021649;28;20461;-57
2023/06/11 10:21:18;;;;;;;6.80;6.10;;;25.70;51.30;;;;;;5028153;28;20441;-57
2023/06/11 10:23:50;;;;;;;7.23;6.53;;;25.80;50.30;;;;;;5029430;28;20457;-56
2023/06/11 10:26:16;;;;;;;6.77;6.10;;;26.00;50.30;;;;;;5021922;28;20539;-57
2023/06/11 10:28:51;;;;;;;6.50;5.90;;;26.00;50.00;;;;;;5021987;28;20453;-56
2023/06/11 10:31:26;;;;;;;6.27;5.53;;;26.10;49.40;;;;;;5023705;28;20254;-55
2023/06/11 10:33:59;;;;;;;6.40;5.70;;;26.10;48.10;;;;;;5023783;28;20449;-57
2023/06/11 10:36:25;;;;;;;11.07;5.77;;;26.10;47.90;;;;;;5025620;28;20863;-58
2023/06/11 10:39:25;;;;;;;5.90;5.30;;;26.10;48.30;;;;;;5017459;28;20437;-56
2023/06/11 10:42:01;;;;;;;6.43;5.83;;;26.20;48.70;;;;;;5027454;28;20882;-57
2023/06/11 10:44:29;;;;;;;6.73;5.90;;;26.30;48.10;;;;;;5024620;28;20947;-57
2023/06/11 10:46:55;;;;;;;6.67;5.60;;;26.30;47.80;;;;;;5022297;28;20560;-57
2023/06/11 10:49:27;;;;;;;7.07;6.20;;;26.20;48.10;;;;;;5026825;28;20504;-57
2023/06/11 10:51:54;;;;;;;5.87;5.30;;;26.20;47.90;;;;;;5018326;28;20426;-56
2023/06/11 10:54:27;;;;;;;6.30;5.70;;;26.30;47.80;;;;;;5027767;28;20531;-57
2023/06/11 10:56:54;;;;;;;5.67;5.17;;;26.30;47.30;;;;;;5019175;28;20509;-57
2023/06/11 10:59:20;;;;;;;6.83;4.77;;;26.40;47.00;;;;;;5023475;28;20848;-55
2023/06/11 11:01:46;;;;;;;8.90;5.60;;;26.50;46.70;;;;;;5023025;28;20431;-57
2023/06/11 11:04:12;;;;;;;5.63;5.00;;;26.50;45.80;;;;;;5023464;28;20810;-55
2023/06/11 11:06:39;;;;;;;5.63;5.13;;;26.60;46.50;;;;;;5028738;28;20203;-57
2023/06/11 11:09:05;;;;;;;5.40;4.90;;;26.80;47.00;;;;;;5024915;28;20180;-57
2023/06/11 11:11:33;;;;;;;7.47;5.50;;;26.80;46.20;;;;;;5024106;28;20462;-56
2023/06/11 11:14:03;;;;;;;9.80;5.70;;;26.90;46.00;;;;;;5021162;28;20196;-56
2023/06/11 11:16:29;;;;;;;5.53;4.70;;;27.00;45.00;;;;;;5023153;28;20197;-56
2023/06/11 11:18:55;;;;;;;6.30;4.87;;;27.00;45.00;;;;;;5025760;28;20664;-57
2023/06/11 11:21:28;;;;;;;6.10;5.00;;;26.90;44.90;;;;;;5024234;28;20190;-56
2023/06/11 11:23:54;;;;;;;15.37;5.60;;;27.00;45.30;;;;;;5023224;28;20207;-56
2023/06/11 11:26:20;;;;;;;7.37;5.10;;;27.20;46.10;;;;;;5027742;28;20462;-57
2023/06/11 11:28:46;;;;;;;5.83;4.80;;;27.20;45.30;;;;;;5026715;28;20191;-56
2023/06/11 11:31:16;;;;;;;5.73;4.47;;;27.20;44.90;;;;;;5027409;28;20517;-56
2023/06/11 11:33:45;;;;;;;7.10;5.20;;;27.20;44.40;;;;;;5023173;28;20666;-58
2023/06/11 11:36:11;;;;;;;7.00;5.40;;;27.40;44.80;;;;;;5026046;28;20174;-56
2023/06/11 11:38:37;;;;;;;5.97;5.10;;;27.50;44.70;;;;;;5017573;28;20207;-57
2023/06/11 11:41:08;;;;;;;5.90;5.30;;;27.70;43.90;;;;;;5026176;28;20262;-57
2023/06/11 11:43:39;;;;;;;5.97;4.80;;;27.90;43.00;;;;;;5014283;28;20282;-58
2023/06/11 11:46:16;;;;;;;5.77;4.93;;;28.00;41.90;;;;;;5020197;28;20164;-58
2023/06/11 11:48:42;;;;;;;5.60;5.10;;;28.00;41.50;;;;;;5015145;28;20233;-57
2023/06/11 11:51:08;;;;;;;5.20;4.70;;;28.00;41.80;;;;;;5024077;28;20203;-56
2023/06/11 11:53:35;;;;;;;5.73;4.43;;;28.00;42.00;;;;;;5024247;28;20229;-56
2023/06/11 11:56:04;;;;;;;8.00;5.50;;;28.00;42.10;;;;;;5018651;28;20176;-56
2023/06/11 11:58:36;;;;;;;5.73;5.17;;;28.00;41.80;;;;;;5020085;28;20178;-57
2023/06/11 12:01:02;;;;;;;5.13;4.67;;;27.80;41.70;;;;;;5021513;28;20226;-56
2023/06/11 12:03:28;;;;;;;6.17;5.07;;;27.70;41.80;;;;;;5020534;28;20199;-57
2023/06/11 12:06:00;;;;;;;6.70;4.43;;;27.90;42.50;;;;;;5025091;28;20168;-57
2023/06/11 12:08:27;;;;;;;9.83;4.40;;;28.10;42.10;;;;;;5025829;28;20223;-57
2023/06/11 12:10:53;;;;;;;5.83;4.70;;;28.40;41.20;;;;;;5023947;28;20172;-59
2023/06/11 12:13:18;;;;;;;10.50;4.97;;;28.60;41.60;;;;;;5022080;28;20187;-58
2023/06/11 12:15:44;;;;;;;5.10;4.60;;;28.80;41.40;;;;;;5021345;28;20182;-57
2023/06/11 12:18:10;;;;;;;5.50;5.00;;;28.70;40.00;;;;;;5022208;28;20175;-59
2023/06/11 12:20:36;;;;;;;4.77;4.30;;;28.50;40.50;;;;;;5015085;28;20186;-58
2023/06/11 12:23:01;;;;;;;4.87;4.33;;;28.60;41.00;;;;;;5018472;28;20206;-56
2023/06/11 12:25:27;;;;;;;4.87;4.43;;;28.70;39.70;;;;;;5023710;28;20534;-59
2023/06/11 12:27:54;;;;;;;6.03;4.40;;;28.90;39.50;;;;;;5012192;28;20282;-57
2023/06/11 12:30:20;;;;;;;5.40;4.63;;;29.10;39.50;;;;;;5022368;28;20183;-57
2023/06/11 12:32:46;;;;;;;5.22;4.50;;;29.30;39.50;;;;;;5016167;28;20265;-58
2023/06/11 12:35:12;;;;;;;9.15;4.88;;;29.50;40.20;;;;;;5024265;28;20643;-58
2023/06/11 12:37:39;;;;;;;4.50;4.10;;;29.60;39.40;;;;;;5020685;28;20191;-59
2023/06/11 12:40:05;;;;;;;5.13;4.63;;;29.70;39.60;;;;;;5021607;28;20171;-55